sensor_id;sensor_type;location;lat;lon;timestamp;temperature;humidity
59148;DHT22;44930;52.878;6.168;2023-05-07T00:00:23;14.40;99.90
59148;DHT22;44930;52.878;6.168;2023-05-07T00:02:49;14.30;99.90
59148;DHT22;44930;52.878;6.168;2023-05-07T00:05:16;14.40;99.90
59148;DHT22;44930;52.878;6.168;2023-05-07T00:07:42;14.00;99.90
59148;DHT22;44930;52.878;6.168;2023-05-07T00:10:09;14.10;99.90
59148;DHT22;44930;52.878;6.168;2023-05-07T00:12:35;14.10;99.90
59148;DHT22;44930;52.878;6.168;2023-05-07T00:15:05;14.50;99.90
59148;DHT22;44930;52.878;6.168;2023-05-07T00:17:32;14.10;99.90
59148;DHT22;44930;52.878;6.168;2023-05-07T00:19:58;14.50;99.90
59148;DHT22;44930;52.878;6.168;2023-05-07T00:22:23;14.30;99.90
59148;DHT22;44930;52.878;6.168;2023-05-07T00:24:49;13.80;99.90
59148;DHT22;44930;52.878;6.168;2023-05-07T00:27:15;14.30;99.90
59148;DHT22;44930;52.878;6.168;2023-05-07T00:29:41;14.20;99.90
59148;DHT22;44930;52.878;6.168;2023-05-07T00:32:07;14.10;99.90
59148;DHT22;44930;52.878;6.168;2023-05-07T00:34:33;14.10;99.90
59148;DHT22;44930;52.878;6.168;2023-05-07T00:37:00;14.10;99.90
59148;DHT22;44930;52.878;6.168;2023-05-07T00:39:26;14.50;99.90
59148;DHT22;44930;52.878;6.168;2023-05-07T00:41:51;13.90;99.90
59148;DHT22;44930;52.878;6.168;2023-05-07T00:44:17;14.00;99.90
59148;DHT22;44930;52.878;6.168;2023-05-07T00:46:43;14.30;99.90
59148;DHT22;44930;52.878;6.168;2023-05-07T00:49:10;14.50;99.90
59148;DHT22;44930;52.878;6.168;2023-05-07T00:51:36;14.00;99.90
59148;DHT22;44930;52.878;6.168;2023-05-07T00:54:03;13.70;99.90
59148;DHT22;44930;52.878;6.168;2023-05-07T00:56:28;14.00;99.90
59148;DHT22;44930;52.878;6.168;2023-05-07T00:58:54;13.80;99.90
59148;DHT22;44930;52.878;6.168;2023-05-07T01:01:20;14.30;99.90
59148;DHT22;44930;52.878;6.168;2023-05-07T01:03:46;13.90;99.90
59148;DHT22;44930;52.878;6.168;2023-05-07T01:06:12;14.00;99.90
59148;DHT22;44930;52.878;6.168;2023-05-07T01:08:42;14.00;99.90
59148;DHT22;44930;52.878;6.168;2023-05-07T01:11:08;13.90;99.90
59148;DHT22;44930;52.878;6.168;2023-05-07T01:13:35;14.10;99.90
59148;DHT22;44930;52.878;6.168;2023-05-07T01:16:01;13.90;99.90
59148;DHT22;44930;52.878;6.168;2023-05-07T01:18:27;13.90;99.90
59148;DHT22;44930;52.878;6.168;2023-05-07T01:20:57;14.00;99.90
59148;DHT22;44930;52.878;6.168;2023-05-07T01:23:24;14.00;99.90
59148;DHT22;44930;52.878;6.168;2023-05-07T01:25:54;13.70;99.90
59148;DHT22;44930;52.878;6.168;2023-05-07T01:28:20;14.20;99.90
59148;DHT22;44930;52.878;6.168;2023-05-07T01:30:49;13.70;99.90
59148;DHT22;44930;52.878;6.168;2023-05-07T01:33:19;14.10;99.90
59148;DHT22;44930;52.878;6.168;2023-05-07T01:35:49;14.10;99.90
59148;DHT22;44930;52.878;6.168;2023-05-07T01:38:16;13.90;99.90
59148;DHT22;44930;52.878;6.168;2023-05-07T01:40:42;13.70;99.90
59148;DHT22;44930;52.878;6.168;2023-05-07T01:43:08;13.60;99.90
59148;DHT22;44930;52.878;6.168;2023-05-07T01:45:34;13.90;99.90
59148;DHT22;44930;52.878;6.168;2023-05-07T01:48:01;13.60;99.90
59148;DHT22;44930;52.878;6.168;2023-05-07T01:50:27;13.90;99.90
59148;DHT22;44930;52.878;6.168;2023-05-07T01:52:53;13.80;99.90
59148;DHT22;44930;52.878;6.168;2023-05-07T01:55:18;13.50;99.90
59148;DHT22;44930;52.878;6.168;2023-05-07T01:57:44;13.60;99.90
59148;DHT22;44930;52.878;6.168;2023-05-07T02:00:10;13.40;99.90
59148;DHT22;44930;52.878;6.168;2023-05-07T02:02:36;13.40;99.90
59148;DHT22;44930;52.878;6.168;2023-05-07T02:05:03;13.40;99.90
59148;DHT22;44930;52.878;6.168;2023-05-07T02:07:30;13.50;99.90
59148;DHT22;44930;52.878;6.168;2023-05-07T02:09:55;14.00;99.90
59148;DHT22;44930;52.878;6.168;2023-05-07T02:12:21;13.60;99.90
59148;DHT22;44930;52.878;6.168;2023-05-07T02:14:47;13.50;99.90
59148;DHT22;44930;52.878;6.168;2023-05-07T02:17:13;13.80;99.90
59148;DHT22;44930;52.878;6.168;2023-05-07T02:19:38;13.60;99.90
59148;DHT22;44930;52.878;6.168;2023-05-07T02:22:04;13.10;99.90
59148;DHT22;44930;52.878;6.168;2023-05-07T02:24:29;13.40;99.90
59148;DHT22;44930;52.878;6.168;2023-05-07T02:26:55;13.70;99.90
59148;DHT22;44930;52.878;6.168;2023-05-07T02:31:47;13.50;99.90
59148;DHT22;44930;52.878;6.168;2023-05-07T02:34:16;13.50;99.90
59148;DHT22;44930;52.878;6.168;2023-05-07T02:36:42;13.70;99.90
59148;DHT22;44930;52.878;6.168;2023-05-07T02:39:07;13.30;99.90
59148;DHT22;44930;52.878;6.168;2023-05-07T02:41:33;13.40;99.90
59148;DHT22;44930;52.878;6.168;2023-05-07T02:43:58;13.10;99.90
59148;DHT22;44930;52.878;6.168;2023-05-07T02:46:24;13.20;99.90
59148;DHT22;44930;52.878;6.168;2023-05-07T02:48:49;13.30;99.90
59148;DHT22;44930;52.878;6.168;2023-05-07T02:51:19;13.00;99.90
59148;DHT22;44930;52.878;6.168;2023-05-07T02:53:45;13.40;99.90
59148;DHT22;44930;52.878;6.168;2023-05-07T02:56:11;12.60;99.90
59148;DHT22;44930;52.878;6.168;2023-05-07T02:58:37;12.80;99.90
59148;DHT22;44930;52.878;6.168;2023-05-07T03:01:05;12.90;99.90
59148;DHT22;44930;52.878;6.168;2023-05-07T03:03:30;13.10;99.90
59148;DHT22;44930;52.878;6.168;2023-05-07T03:05:56;12.80;99.90
59148;DHT22;44930;52.878;6.168;2023-05-07T03:08:22;12.80;99.90
59148;DHT22;44930;52.878;6.168;2023-05-07T03:10:48;13.00;99.90
59148;DHT22;44930;52.878;6.168;2023-05-07T03:13:13;12.80;99.90
59148;DHT22;44930;52.878;6.168;2023-05-07T03:15:39;12.80;99.90
59148;DHT22;44930;52.878;6.168;2023-05-07T03:18:05;12.80;99.90
59148;DHT22;44930;52.878;6.168;2023-05-07T03:20:30;12.80;99.90
59148;DHT22;44930;52.878;6.168;2023-05-07T03:22:56;13.20;99.90
59148;DHT22;44930;52.878;6.168;2023-05-07T03:25:21;12.80;99.90
59148;DHT22;44930;52.878;6.168;2023-05-07T03:27:47;12.50;99.90
59148;DHT22;44930;52.878;6.168;2023-05-07T03:30:13;12.90;99.90
59148;DHT22;44930;52.878;6.168;2023-05-07T03:32:38;13.10;99.90
59148;DHT22;44930;52.878;6.168;2023-05-07T03:35:04;12.60;99.90
59148;DHT22;44930;52.878;6.168;2023-05-07T03:37:30;12.50;99.90
59148;DHT22;44930;52.878;6.168;2023-05-07T03:39:55;12.60;99.90
59148;DHT22;44930;52.878;6.168;2023-05-07T03:42:21;12.80;99.90
59148;DHT22;44930;52.878;6.168;2023-05-07T03:44:46;12.80;99.90
59148;DHT22;44930;52.878;6.168;2023-05-07T03:47:12;12.50;99.90
59148;DHT22;44930;52.878;6.168;2023-05-07T03:49:39;12.50;99.90
59148;DHT22;44930;52.878;6.168;2023-05-07T03:52:05;12.40;99.90
59148;DHT22;44930;52.878;6.168;2023-05-07T03:54:30;12.20;99.90
59148;DHT22;44930;52.878;6.168;2023-05-07T03:56:56;12.50;99.90
59148;DHT22;44930;52.878;6.168;2023-05-07T03:59:22;12.60;99.90
59148;DHT22;44930;52.878;6.168;2023-05-07T04:01:48;12.60;99.90
59148;DHT22;44930;52.878;6.168;2023-05-07T04:04:14;12.60;99.90
59148;DHT22;44930;52.878;6.168;2023-05-07T04:06:40;12.90;99.90
59148;DHT22;44930;52.878;6.168;2023-05-07T04:09:06;12.30;99.90
59148;DHT22;44930;52.878;6.168;2023-05-07T04:11:32;12.40;99.90
59148;DHT22;44930;52.878;6.168;2023-05-07T04:13:57;12.40;99.90
59148;DHT22;44930;52.878;6.168;2023-05-07T04:16:23;12.30;99.90
59148;DHT22;44930;52.878;6.168;2023-05-07T04:18:48;12.30;99.90
59148;DHT22;44930;52.878;6.168;2023-05-07T04:21:18;12.90;99.90
59148;DHT22;44930;52.878;6.168;2023-05-07T04:23:45;12.40;99.90
59148;DHT22;44930;52.878;6.168;2023-05-07T04:26:11;12.30;99.90
59148;DHT22;44930;52.878;6.168;2023-05-07T04:28:36;12.60;99.90
59148;DHT22;44930;52.878;6.168;2023-05-07T04:31:02;12.70;99.90
59148;DHT22;44930;52.878;6.168;2023-05-07T04:33:27;12.20;99.90
59148;DHT22;44930;52.878;6.168;2023-05-07T04:35:53;12.20;99.90
59148;DHT22;44930;52.878;6.168;2023-05-07T04:38:18;12.20;99.90
59148;DHT22;44930;52.878;6.168;2023-05-07T04:40:44;12.60;99.90
59148;DHT22;44930;52.878;6.168;2023-05-07T04:43:10;11.80;99.90
59148;DHT22;44930;52.878;6.168;2023-05-07T04:45:36;12.30;99.90
59148;DHT22;44930;52.878;6.168;2023-05-07T04:48:02;12.30;99.90
59148;DHT22;44930;52.878;6.168;2023-05-07T04:52:53;12.10;99.90
59148;DHT22;44930;52.878;6.168;2023-05-07T04:55:19;12.20;99.90
59148;DHT22;44930;52.878;6.168;2023-05-07T04:57:44;12.60;99.90
59148;DHT22;44930;52.878;6.168;2023-05-07T05:00:11;12.30;99.90
59148;DHT22;44930;52.878;6.168;2023-05-07T05:02:40;12.20;99.90
59148;DHT22;44930;52.878;6.168;2023-05-07T05:05:06;12.50;99.90
59148;DHT22;44930;52.878;6.168;2023-05-07T05:07:32;12.30;99.90
59148;DHT22;44930;52.878;6.168;2023-05-07T05:09:58;12.50;99.90
59148;DHT22;44930;52.878;6.168;2023-05-07T05:12:24;12.30;99.90
59148;DHT22;44930;52.878;6.168;2023-05-07T05:14:49;11.90;99.90
59148;DHT22;44930;52.878;6.168;2023-05-07T05:17:15;12.20;99.90
59148;DHT22;44930;52.878;6.168;2023-05-07T05:19:40;12.50;99.90
59148;DHT22;44930;52.878;6.168;2023-05-07T05:22:06;12.20;99.90
59148;DHT22;44930;52.878;6.168;2023-05-07T05:24:32;12.00;99.90
59148;DHT22;44930;52.878;6.168;2023-05-07T05:29:26;12.40;99.90
59148;DHT22;44930;52.878;6.168;2023-05-07T05:31:52;12.30;99.90
59148;DHT22;44930;52.878;6.168;2023-05-07T05:34:17;12.10;99.90
59148;DHT22;44930;52.878;6.168;2023-05-07T05:36:45;12.40;99.90
59148;DHT22;44930;52.878;6.168;2023-05-07T05:39:10;12.20;99.90
59148;DHT22;44930;52.878;6.168;2023-05-07T05:41:36;12.30;99.90
59148;DHT22;44930;52.878;6.168;2023-05-07T05:44:01;12.40;99.90
59148;DHT22;44930;52.878;6.168;2023-05-07T05:46:27;12.30;99.90
59148;DHT22;44930;52.878;6.168;2023-05-07T05:48:52;12.70;99.90
59148;DHT22;44930;52.878;6.168;2023-05-07T05:51:18;12.20;99.90
59148;DHT22;44930;52.878;6.168;2023-05-07T05:53:44;12.30;99.90
59148;DHT22;44930;52.878;6.168;2023-05-07T05:56:09;12.40;99.90
59148;DHT22;44930;52.878;6.168;2023-05-07T05:58:35;12.30;99.90
59148;DHT22;44930;52.878;6.168;2023-05-07T06:01:01;12.30;99.90
59148;DHT22;44930;52.878;6.168;2023-05-07T06:03:28;12.40;99.90
59148;DHT22;44930;52.878;6.168;2023-05-07T06:05:53;12.50;99.90
59148;DHT22;44930;52.878;6.168;2023-05-07T06:08:19;12.40;99.90
59148;DHT22;44930;52.878;6.168;2023-05-07T06:10:45;12.40;99.90
59148;DHT22;44930;52.878;6.168;2023-05-07T06:13:10;12.40;99.90
59148;DHT22;44930;52.878;6.168;2023-05-07T06:15:36;12.50;99.90
59148;DHT22;44930;52.878;6.168;2023-05-07T06:18:02;12.70;99.90
59148;DHT22;44930;52.878;6.168;2023-05-07T06:20:28;12.50;99.90
59148;DHT22;44930;52.878;6.168;2023-05-07T06:22:53;12.60;99.90
59148;DHT22;44930;52.878;6.168;2023-05-07T06:25:19;12.70;99.90
59148;DHT22;44930;52.878;6.168;2023-05-07T06:27:45;12.50;99.90
59148;DHT22;44930;52.878;6.168;2023-05-07T06:30:11;12.40;99.90
59148;DHT22;44930;52.878;6.168;2023-05-07T06:32:36;12.60;99.90
59148;DHT22;44930;52.878;6.168;2023-05-07T06:35:02;13.10;99.90
59148;DHT22;44930;52.878;6.168;2023-05-07T06:37:28;12.60;99.90
59148;DHT22;44930;52.878;6.168;2023-05-07T06:39:53;12.80;99.90
59148;DHT22;44930;52.878;6.168;2023-05-07T06:42:19;12.70;99.90
59148;DHT22;44930;52.878;6.168;2023-05-07T06:44:44;12.40;99.90
59148;DHT22;44930;52.878;6.168;2023-05-07T06:47:10;12.80;99.90
59148;DHT22;44930;52.878;6.168;2023-05-07T06:49:35;12.80;99.90
59148;DHT22;44930;52.878;6.168;2023-05-07T06:52:01;12.60;99.90
59148;DHT22;44930;52.878;6.168;2023-05-07T06:54:28;12.90;99.90
59148;DHT22;44930;52.878;6.168;2023-05-07T06:56:54;12.60;99.90
59148;DHT22;44930;52.878;6.168;2023-05-07T06:59:19;12.90;99.90
59148;DHT22;44930;52.878;6.168;2023-05-07T07:01:45;13.00;99.90
59148;DHT22;44930;52.878;6.168;2023-05-07T07:04:11;13.10;99.90
59148;DHT22;44930;52.878;6.168;2023-05-07T07:06:36;13.40;99.90
59148;DHT22;44930;52.878;6.168;2023-05-07T07:09:02;13.10;99.90
59148;DHT22;44930;52.878;6.168;2023-05-07T07:11:27;13.30;99.90
59148;DHT22;44930;52.878;6.168;2023-05-07T07:13:53;13.20;99.90
59148;DHT22;44930;52.878;6.168;2023-05-07T07:16:20;13.40;99.90
59148;DHT22;44930;52.878;6.168;2023-05-07T07:18:46;13.60;99.90
59148;DHT22;44930;52.878;6.168;2023-05-07T07:21:12;13.40;99.90
59148;DHT22;44930;52.878;6.168;2023-05-07T07:23:37;13.50;99.90
59148;DHT22;44930;52.878;6.168;2023-05-07T07:26:03;13.60;99.90
59148;DHT22;44930;52.878;6.168;2023-05-07T07:28:28;14.00;99.90
59148;DHT22;44930;52.878;6.168;2023-05-07T07:33:20;13.80;99.90
59148;DHT22;44930;52.878;6.168;2023-05-07T07:35:45;13.60;99.90
59148;DHT22;44930;52.878;6.168;2023-05-07T07:38:11;13.80;99.90
59148;DHT22;44930;52.878;6.168;2023-05-07T07:40:36;13.60;99.90
59148;DHT22;44930;52.878;6.168;2023-05-07T07:43:02;13.70;99.90
59148;DHT22;44930;52.878;6.168;2023-05-07T07:45:28;13.90;99.90
59148;DHT22;44930;52.878;6.168;2023-05-07T07:47:54;13.80;99.90
59148;DHT22;44930;52.878;6.168;2023-05-07T07:50:20;14.20;99.90
59148;DHT22;44930;52.878;6.168;2023-05-07T07:52:45;13.90;99.90
59148;DHT22;44930;52.878;6.168;2023-05-07T07:55:11;13.90;99.90
59148;DHT22;44930;52.878;6.168;2023-05-07T07:57:37;13.80;99.90
59148;DHT22;44930;52.878;6.168;2023-05-07T08:00:03;13.80;99.90
59148;DHT22;44930;52.878;6.168;2023-05-07T08:02:29;14.20;99.90
59148;DHT22;44930;52.878;6.168;2023-05-07T08:04:54;14.20;99.90
59148;DHT22;44930;52.878;6.168;2023-05-07T08:07:21;14.20;99.90
59148;DHT22;44930;52.878;6.168;2023-05-07T08:09:48;14.30;99.90
59148;DHT22;44930;52.878;6.168;2023-05-07T08:12:14;14.40;99.90
59148;DHT22;44930;52.878;6.168;2023-05-07T08:14:39;14.10;99.90
59148;DHT22;44930;52.878;6.168;2023-05-07T08:17:05;14.50;99.90
59148;DHT22;44930;52.878;6.168;2023-05-07T08:19:32;14.60;99.90
59148;DHT22;44930;52.878;6.168;2023-05-07T08:21:57;14.60;99.90
59148;DHT22;44930;52.878;6.168;2023-05-07T08:24:23;14.70;99.90
59148;DHT22;44930;52.878;6.168;2023-05-07T08:29:15;14.70;99.90
59148;DHT22;44930;52.878;6.168;2023-05-07T08:31:40;14.50;99.90
59148;DHT22;44930;52.878;6.168;2023-05-07T08:34:06;14.90;99.90
59148;DHT22;44930;52.878;6.168;2023-05-07T08:36:32;14.90;99.90
59148;DHT22;44930;52.878;6.168;2023-05-07T08:38:58;14.80;99.90
59148;DHT22;44930;52.878;6.168;2023-05-07T08:41:24;15.00;99.90
59148;DHT22;44930;52.878;6.168;2023-05-07T08:43:51;15.10;99.90
59148;DHT22;44930;52.878;6.168;2023-05-07T08:46:18;15.40;99.90
59148;DHT22;44930;52.878;6.168;2023-05-07T08:48:45;15.40;99.90
59148;DHT22;44930;52.878;6.168;2023-05-07T08:51:15;15.30;99.90
59148;DHT22;44930;52.878;6.168;2023-05-07T08:53:41;15.40;99.90
59148;DHT22;44930;52.878;6.168;2023-05-07T08:56:08;15.80;99.90
59148;DHT22;44930;52.878;6.168;2023-05-07T08:58:34;15.30;99.90
59148;DHT22;44930;52.878;6.168;2023-05-07T09:01:13;16.50;99.90
59148;DHT22;44930;52.878;6.168;2023-05-07T09:03:40;15.40;99.90
59148;DHT22;44930;52.878;6.168;2023-05-07T09:06:05;15.50;99.90
59148;DHT22;44930;52.878;6.168;2023-05-07T09:08:33;15.00;99.90
59148;DHT22;44930;52.878;6.168;2023-05-07T09:10:59;15.30;99.90
59148;DHT22;44930;52.878;6.168;2023-05-07T09:13:26;15.60;99.90
59148;DHT22;44930;52.878;6.168;2023-05-07T09:15:52;15.40;99.90
59148;DHT22;44930;52.878;6.168;2023-05-07T09:18:17;15.40;99.90
59148;DHT22;44930;52.878;6.168;2023-05-07T09:20:43;15.10;99.90
59148;DHT22;44930;52.878;6.168;2023-05-07T09:23:09;15.30;99.90
59148;DHT22;44930;52.878;6.168;2023-05-07T09:25:36;15.00;99.90
59148;DHT22;44930;52.878;6.168;2023-05-07T09:28:03;15.40;99.90
59148;DHT22;44930;52.878;6.168;2023-05-07T09:30:29;15.40;99.90
59148;DHT22;44930;52.878;6.168;2023-05-07T09:32:56;15.40;99.90
59148;DHT22;44930;52.878;6.168;2023-05-07T09:35:22;15.50;99.90
59148;DHT22;44930;52.878;6.168;2023-05-07T09:38:01;15.50;99.90
59148;DHT22;44930;52.878;6.168;2023-05-07T09:40:29;15.60;99.90
59148;DHT22;44930;52.878;6.168;2023-05-07T09:42:55;15.70;99.90
59148;DHT22;44930;52.878;6.168;2023-05-07T09:45:30;15.50;99.90
59148;DHT22;44930;52.878;6.168;2023-05-07T09:47:57;16.00;99.90
59148;DHT22;44930;52.878;6.168;2023-05-07T09:50:27;16.30;99.90
59148;DHT22;44930;52.878;6.168;2023-05-07T09:52:57;16.20;99.90
59148;DHT22;44930;52.878;6.168;2023-05-07T09:55:23;16.40;99.90
59148;DHT22;44930;52.878;6.168;2023-05-07T09:57:52;16.50;99.90
59148;DHT22;44930;52.878;6.168;2023-05-07T10:00:22;16.30;99.90
59148;DHT22;44930;52.878;6.168;2023-05-07T10:02:51;16.20;99.90
59148;DHT22;44930;52.878;6.168;2023-05-07T10:05:22;16.70;99.90
59148;DHT22;44930;52.878;6.168;2023-05-07T10:07:48;16.70;99.90
59148;DHT22;44930;52.878;6.168;2023-05-07T10:10:14;16.40;99.90
59148;DHT22;44930;52.878;6.168;2023-05-07T10:12:41;16.70;99.90
59148;DHT22;44930;52.878;6.168;2023-05-07T10:15:10;17.00;99.90
59148;DHT22;44930;52.878;6.168;2023-05-07T10:17:38;17.00;99.90
59148;DHT22;44930;52.878;6.168;2023-05-07T10:20:05;17.00;99.90
59148;DHT22;44930;52.878;6.168;2023-05-07T10:22:39;16.70;99.90
59148;DHT22;44930;52.878;6.168;2023-05-07T10:25:16;16.90;99.90
59148;DHT22;44930;52.878;6.168;2023-05-07T10:27:43;16.50;99.90
59148;DHT22;44930;52.878;6.168;2023-05-07T10:30:37;17.00;99.90
59148;DHT22;44930;52.878;6.168;2023-05-07T10:33:06;17.00;99.90
59148;DHT22;44930;52.878;6.168;2023-05-07T10:35:45;16.80;99.90
59148;DHT22;44930;52.878;6.168;2023-05-07T10:38:12;17.30;99.90
59148;DHT22;44930;52.878;6.168;2023-05-07T10:40:38;17.50;99.90
59148;DHT22;44930;52.878;6.168;2023-05-07T10:43:04;17.90;99.90
59148;DHT22;44930;52.878;6.168;2023-05-07T10:45:31;18.20;99.90
59148;DHT22;44930;52.878;6.168;2023-05-07T10:48:10;17.60;99.90
59148;DHT22;44930;52.878;6.168;2023-05-07T10:50:37;17.70;99.90
59148;DHT22;44930;52.878;6.168;2023-05-07T10:53:20;17.10;99.90
59148;DHT22;44930;52.878;6.168;2023-05-07T10:55:48;17.90;99.90
59148;DHT22;44930;52.878;6.168;2023-05-07T10:58:29;17.40;99.90
59148;DHT22;44930;52.878;6.168;2023-05-07T11:00:59;17.80;99.90
59148;DHT22;44930;52.878;6.168;2023-05-07T11:03:25;17.40;99.90
59148;DHT22;44930;52.878;6.168;2023-05-07T11:06:11;18.20;99.90
59148;DHT22;44930;52.878;6.168;2023-05-07T11:09:03;17.60;99.90
59148;DHT22;44930;52.878;6.168;2023-05-07T11:11:49;17.80;99.90
59148;DHT22;44930;52.878;6.168;2023-05-07T11:17:08;18.10;99.90
59148;DHT22;44930;52.878;6.168;2023-05-07T11:19:51;18.20;99.90
59148;DHT22;44930;52.878;6.168;2023-05-07T11:25:06;18.20;99.90
59148;DHT22;44930;52.878;6.168;2023-05-07T11:27:32;18.30;99.90
59148;DHT22;44930;52.878;6.168;2023-05-07T11:29:58;18.60;99.90
59148;DHT22;44930;52.878;6.168;2023-05-07T11:32:25;18.10;99.90
59148;DHT22;44930;52.878;6.168;2023-05-07T11:34:58;18.30;99.90
59148;DHT22;44930;52.878;6.168;2023-05-07T11:37:25;18.60;99.90
59148;DHT22;44930;52.878;6.168;2023-05-07T11:40:05;18.80;99.90
59148;DHT22;44930;52.878;6.168;2023-05-07T11:42:34;18.60;99.90
59148;DHT22;44930;52.878;6.168;2023-05-07T11:45:01;18.30;99.90
59148;DHT22;44930;52.878;6.168;2023-05-07T11:47:30;18.70;99.90
59148;DHT22;44930;52.878;6.168;2023-05-07T11:49:55;18.60;99.90
59148;DHT22;44930;52.878;6.168;2023-05-07T11:52:23;18.50;99.90
59148;DHT22;44930;52.878;6.168;2023-05-07T11:54:53;18.80;99.90
59148;DHT22;44930;52.878;6.168;2023-05-07T11:57:19;18.60;99.90
59148;DHT22;44930;52.878;6.168;2023-05-07T11:59:45;18.50;99.90
59148;DHT22;44930;52.878;6.168;2023-05-07T12:02:14;18.90;99.90
59148;DHT22;44930;52.878;6.168;2023-05-07T12:04:40;18.90;99.90
59148;DHT22;44930;52.878;6.168;2023-05-07T12:07:14;19.30;99.90
59148;DHT22;44930;52.878;6.168;2023-05-07T12:09:41;19.00;99.90
59148;DHT22;44930;52.878;6.168;2023-05-07T12:12:07;19.10;99.90
59148;DHT22;44930;52.878;6.168;2023-05-07T12:14:32;19.00;99.90
59148;DHT22;44930;52.878;6.168;2023-05-07T12:17:00;18.90;99.90
59148;DHT22;44930;52.878;6.168;2023-05-07T12:19:29;18.90;99.90
59148;DHT22;44930;52.878;6.168;2023-05-07T12:21:55;18.80;99.90
59148;DHT22;44930;52.878;6.168;2023-05-07T12:24:21;19.60;99.90
59148;DHT22;44930;52.878;6.168;2023-05-07T12:26:48;18.80;99.90
59148;DHT22;44930;52.878;6.168;2023-05-07T12:29:13;20.00;99.90
59148;DHT22;44930;52.878;6.168;2023-05-07T12:31:42;19.30;99.90
59148;DHT22;44930;52.878;6.168;2023-05-07T12:34:11;19.00;99.90
59148;DHT22;44930;52.878;6.168;2023-05-07T12:36:40;19.60;99.90
59148;DHT22;44930;52.878;6.168;2023-05-07T12:39:09;19.60;99.90
59148;DHT22;44930;52.878;6.168;2023-05-07T12:41:54;19.70;99.90
59148;DHT22;44930;52.878;6.168;2023-05-07T12:44:22;19.80;99.90
59148;DHT22;44930;52.878;6.168;2023-05-07T12:46:49;20.00;99.90
59148;DHT22;44930;52.878;6.168;2023-05-07T12:49:14;20.90;99.90
59148;DHT22;44930;52.878;6.168;2023-05-07T12:51:40;19.80;99.90
59148;DHT22;44930;52.878;6.168;2023-05-07T12:54:06;19.50;99.90
59148;DHT22;44930;52.878;6.168;2023-05-07T12:56:31;19.60;99.90
59148;DHT22;44930;52.878;6.168;2023-05-07T12:58:58;19.50;99.90
59148;DHT22;44930;52.878;6.168;2023-05-07T13:01:29;19.30;99.90
59148;DHT22;44930;52.878;6.168;2023-05-07T13:03:55;19.40;99.90
59148;DHT22;44930;52.878;6.168;2023-05-07T13:06:21;19.20;99.90
59148;DHT22;44930;52.878;6.168;2023-05-07T13:08:46;19.20;99.90
59148;DHT22;44930;52.878;6.168;2023-05-07T13:11:12;19.30;99.90
59148;DHT22;44930;52.878;6.168;2023-05-07T13:13:39;19.30;99.90
59148;DHT22;44930;52.878;6.168;2023-05-07T13:16:06;20.60;99.90
59148;DHT22;44930;52.878;6.168;2023-05-07T13:18:33;19.40;99.90
59148;DHT22;44930;52.878;6.168;2023-05-07T13:20:59;18.80;99.90
59148;DHT22;44930;52.878;6.168;2023-05-07T13:23:26;19.30;99.90
59148;DHT22;44930;52.878;6.168;2023-05-07T13:25:51;19.30;99.90
59148;DHT22;44930;52.878;6.168;2023-05-07T13:28:21;19.20;99.90
59148;DHT22;44930;52.878;6.168;2023-05-07T13:30:47;20.90;99.90
59148;DHT22;44930;52.878;6.168;2023-05-07T13:33:13;19.70;99.90
59148;DHT22;44930;52.878;6.168;2023-05-07T13:35:39;20.00;99.90
59148;DHT22;44930;52.878;6.168;2023-05-07T13:38:05;21.50;99.90
59148;DHT22;44930;52.878;6.168;2023-05-07T13:40:31;20.50;99.90
59148;DHT22;44930;52.878;6.168;2023-05-07T13:42:59;21.10;99.90
59148;DHT22;44930;52.878;6.168;2023-05-07T13:45:27;21.80;99.90
59148;DHT22;44930;52.878;6.168;2023-05-07T13:47:54;22.50;99.90
59148;DHT22;44930;52.878;6.168;2023-05-07T13:50:20;20.60;99.90
59148;DHT22;44930;52.878;6.168;2023-05-07T13:52:46;20.20;99.90
59148;DHT22;44930;52.878;6.168;2023-05-07T13:55:19;20.30;99.90
59148;DHT22;44930;52.878;6.168;2023-05-07T13:57:45;19.90;99.90
59148;DHT22;44930;52.878;6.168;2023-05-07T14:00:11;20.00;99.90
59148;DHT22;44930;52.878;6.168;2023-05-07T14:02:37;20.20;99.90
59148;DHT22;44930;52.878;6.168;2023-05-07T14:05:03;19.80;99.90
59148;DHT22;44930;52.878;6.168;2023-05-07T14:07:29;19.90;99.90
59148;DHT22;44930;52.878;6.168;2023-05-07T14:09:56;20.50;99.90
59148;DHT22;44930;52.878;6.168;2023-05-07T14:12:21;20.10;99.90
59148;DHT22;44930;52.878;6.168;2023-05-07T14:14:47;20.60;99.90
59148;DHT22;44930;52.878;6.168;2023-05-07T14:17:16;21.10;99.90
59148;DHT22;44930;52.878;6.168;2023-05-07T14:19:41;21.10;99.90
59148;DHT22;44930;52.878;6.168;2023-05-07T14:22:07;21.90;99.90
59148;DHT22;44930;52.878;6.168;2023-05-07T14:24:32;21.90;99.90
59148;DHT22;44930;52.878;6.168;2023-05-07T14:26:58;21.70;99.90
59148;DHT22;44930;52.878;6.168;2023-05-07T14:29:23;22.00;99.90
59148;DHT22;44930;52.878;6.168;2023-05-07T14:31:49;21.80;99.90
59148;DHT22;44930;52.878;6.168;2023-05-07T14:34:15;22.10;99.90
59148;DHT22;44930;52.878;6.168;2023-05-07T14:36:40;21.90;99.90
59148;DHT22;44930;52.878;6.168;2023-05-07T14:39:06;22.00;99.90
59148;DHT22;44930;52.878;6.168;2023-05-07T14:41:32;21.40;99.90
59148;DHT22;44930;52.878;6.168;2023-05-07T14:43:58;21.70;99.90
59148;DHT22;44930;52.878;6.168;2023-05-07T14:46:24;22.10;99.90
59148;DHT22;44930;52.878;6.168;2023-05-07T14:48:50;22.40;99.90
59148;DHT22;44930;52.878;6.168;2023-05-07T14:51:15;22.20;99.90
59148;DHT22;44930;52.878;6.168;2023-05-07T14:53:41;22.60;99.90
59148;DHT22;44930;52.878;6.168;2023-05-07T14:56:07;22.40;99.90
59148;DHT22;44930;52.878;6.168;2023-05-07T14:58:33;22.30;99.90
59148;DHT22;44930;52.878;6.168;2023-05-07T15:01:00;22.50;99.90
59148;DHT22;44930;52.878;6.168;2023-05-07T15:03:25;22.50;99.90
59148;DHT22;44930;52.878;6.168;2023-05-07T15:05:51;22.60;99.90
59148;DHT22;44930;52.878;6.168;2023-05-07T15:08:20;22.80;99.90
59148;DHT22;44930;52.878;6.168;2023-05-07T15:10:45;22.90;99.90
59148;DHT22;44930;52.878;6.168;2023-05-07T15:13:11;22.90;99.90
59148;DHT22;44930;52.878;6.168;2023-05-07T15:15:38;22.80;99.90
59148;DHT22;44930;52.878;6.168;2023-05-07T15:18:04;23.00;99.90
59148;DHT22;44930;52.878;6.168;2023-05-07T15:20:30;22.60;99.90
59148;DHT22;44930;52.878;6.168;2023-05-07T15:22:55;23.10;99.90
59148;DHT22;44930;52.878;6.168;2023-05-07T15:25:22;23.80;99.90
59148;DHT22;44930;52.878;6.168;2023-05-07T15:27:48;23.20;99.90
59148;DHT22;44930;52.878;6.168;2023-05-07T15:30:14;23.70;99.90
59148;DHT22;44930;52.878;6.168;2023-05-07T15:32:40;23.70;99.90
59148;DHT22;44930;52.878;6.168;2023-05-07T15:35:06;23.30;99.90
59148;DHT22;44930;52.878;6.168;2023-05-07T15:37:33;24.20;99.90
59148;DHT22;44930;52.878;6.168;2023-05-07T15:39:58;23.80;99.90
59148;DHT22;44930;52.878;6.168;2023-05-07T15:42:24;24.00;99.90
59148;DHT22;44930;52.878;6.168;2023-05-07T15:44:50;25.40;99.90